CheckWX is a tool to help pilots better visualize weather data.  It is not intended as a substitute for an official pre-flight weather briefing.

02:58:03 UTC

KHIB METAR
Range Regional Airport
Hibbing, Minnesota, USA
Current

1 hour ago

KHIB 230153Z AUTO 00000KT 10SM CLR 09/09 A2985 RMK AO2 SLP114 T00940089
Observed
Sep-23 @ 01:53 UTC
Visibility
10 SM
Flight Rules
VFR
Cloud Levels
  • Clear skies
Temperature
C / 48°F
Dewpoint
C / 48°F
Humidity
100%
Altimeter
29.85" Hg
Pressure
1010.82 hPa
Previous

2 hours ago

KHIB 230053Z AUTO 00000KT 10SM FEW033 11/10 A2984 RMK AO2 SLP111 T01060100
Observed
Sep-23 @ 00:53 UTC
Visibility
10 SM
Flight Rules
VFR
Cloud Levels
  • Few at 3,300' AGL
Temperature
11°C / 52°F
Dewpoint
10°C / 50°F
Humidity
94%
Altimeter
29.84" Hg
Pressure
1010.52 hPa
Previous

3 hours ago

KHIB 222353Z AUTO 00000KT 10SM OVC055 13/11 A2984 RMK AO2 SLP109 T01330111 10139 20133 53002
Observed
Sep-22 @ 23:53 UTC
Visibility
10 SM
Flight Rules
VFR
Cloud Levels
  • Overcast at 5,500' AGL
Temperature
13°C / 55°F
Dewpoint
11°C / 52°F
Humidity
88%
Altimeter
29.84" Hg
Pressure
1010.52 hPa